createdAt,value
2022-12-09T00:09:28.995Z,97370.22
2022-12-09T00:29:31.567Z,97361.78
2022-12-09T00:49:34.693Z,97360.66
2022-12-09T01:09:37.414Z,97384.63
2022-12-09T01:29:40.381Z,97384.63
2022-12-09T01:49:44.263Z,97378.59
2022-12-09T02:09:46.830Z,97373.44
2022-12-09T02:29:49.469Z,97353.09
2022-12-09T02:49:52.363Z,97351.63
2022-12-09T03:09:55.032Z,97337.38
2022-12-09T03:29:57.997Z,97335.88
2022-12-09T03:50:01.173Z,97335.00
2022-12-09T04:10:04.397Z,97329.53
2022-12-09T04:30:07.507Z,97318.75
2022-12-09T04:50:10.756Z,97325.00
2022-12-09T05:10:14.185Z,97314.81
2022-12-09T05:30:17.447Z,97326.53
2022-12-09T05:50:21.211Z,97319.44
2022-12-09T06:10:24.729Z,97314.03
2022-12-09T06:30:27.547Z,97329.91
2022-12-09T06:50:30.812Z,97324.81
2022-12-09T07:10:33.727Z,97313.75
2022-12-09T07:30:36.800Z,97319.06
2022-12-09T07:50:39.675Z,97295.66
2022-12-09T08:10:42.503Z,97298.38
2022-12-09T08:30:45.495Z,97299.84
2022-12-09T08:50:48.684Z,97322.91
2022-12-09T09:10:51.970Z,97317.84
2022-12-09T09:30:54.965Z,97299.47
2022-12-09T09:50:57.753Z,97286.03
2022-12-09T10:11:00.793Z,97278.88
2022-12-09T10:31:03.632Z,97247.44
2022-12-09T10:51:07.096Z,97240.09
2022-12-09T11:11:10.384Z,97223.66
2022-12-09T11:31:28.814Z,97229.34
2022-12-09T11:51:31.733Z,97200.81
2022-12-09T15:14:59.553Z,97048.47
2022-12-09T16:15:45.988Z,96994.59
2022-12-09T16:35:49.068Z,96953.13
2022-12-09T16:55:51.528Z,96940.22
2022-12-09T17:15:59.260Z,96913.63
2022-12-09T17:36:01.784Z,96920.63
2022-12-09T17:56:04.201Z,96894.91
2022-12-09T18:16:06.621Z,96877.75
2022-12-09T18:36:09.200Z,96857.66
2022-12-09T18:56:11.632Z,96827.47
2022-12-09T19:16:14.290Z,96829.72
2022-12-09T19:36:18.160Z,96811.38
2022-12-09T19:56:20.648Z,96792.31
2022-12-09T20:16:23.726Z,96788.03
2022-12-09T20:36:26.172Z,96757.41
2022-12-09T20:56:29.132Z,96760.91
2022-12-09T21:16:31.863Z,96756.81
2022-12-09T21:36:36.836Z,96750.16
2022-12-09T21:56:39.251Z,96744.00
2022-12-09T22:16:41.727Z,96749.62
2022-12-09T22:36:44.375Z,96741.88
2022-12-09T22:56:46.905Z,96733.50
2022-12-09T23:16:49.347Z,96729.75
2022-12-09T23:36:54.694Z,96738.22
2022-12-09T23:56:57.111Z,96728.63
